sensor_id;sensor_type;location;lat;lon;timestamp;temperature;humidity
21648;DHT22;10985;54.182;7.890;2024-03-06T00:02:10;5.30;99.90
21648;DHT22;10985;54.182;7.890;2024-03-06T00:04:36;5.30;99.90
21648;DHT22;10985;54.182;7.890;2024-03-06T00:07:03;5.30;99.90
21648;DHT22;10985;54.182;7.890;2024-03-06T00:09:28;5.30;99.90
21648;DHT22;10985;54.182;7.890;2024-03-06T00:11:55;5.30;99.90
21648;DHT22;10985;54.182;7.890;2024-03-06T00:14:22;5.20;99.90
21648;DHT22;10985;54.182;7.890;2024-03-06T00:16:48;5.20;99.90
21648;DHT22;10985;54.182;7.890;2024-03-06T00:19:18;5.20;99.90
21648;DHT22;10985;54.182;7.890;2024-03-06T00:21:44;5.20;99.90
21648;DHT22;10985;54.182;7.890;2024-03-06T00:24:12;5.20;99.90
21648;DHT22;10985;54.182;7.890;2024-03-06T00:26:40;5.10;99.90
21648;DHT22;10985;54.182;7.890;2024-03-06T00:29:06;5.10;99.90
21648;DHT22;10985;54.182;7.890;2024-03-06T00:31:31;5.10;99.90
21648;DHT22;10985;54.182;7.890;2024-03-06T00:33:57;5.10;99.90
21648;DHT22;10985;54.182;7.890;2024-03-06T00:36:23;5.10;99.90
21648;DHT22;10985;54.182;7.890;2024-03-06T00:38:48;5.10;99.90
21648;DHT22;10985;54.182;7.890;2024-03-06T00:41:14;5.10;99.90
21648;DHT22;10985;54.182;7.890;2024-03-06T00:43:39;5.10;99.90
21648;DHT22;10985;54.182;7.890;2024-03-06T00:46:05;5.00;99.90
21648;DHT22;10985;54.182;7.890;2024-03-06T00:48:30;5.00;99.90
21648;DHT22;10985;54.182;7.890;2024-03-06T00:50:56;4.90;99.90
21648;DHT22;10985;54.182;7.890;2024-03-06T00:53:22;5.00;99.90
21648;DHT22;10985;54.182;7.890;2024-03-06T00:55:47;5.00;99.90
21648;DHT22;10985;54.182;7.890;2024-03-06T00:58:13;4.90;99.90
21648;DHT22;10985;54.182;7.890;2024-03-06T01:00:39;5.00;99.90
21648;DHT22;10985;54.182;7.890;2024-03-06T01:03:04;5.00;99.90
21648;DHT22;10985;54.182;7.890;2024-03-06T01:05:30;5.00;99.90
21648;DHT22;10985;54.182;7.890;2024-03-06T01:07:55;5.00;99.90
21648;DHT22;10985;54.182;7.890;2024-03-06T01:10:22;5.00;99.90
21648;DHT22;10985;54.182;7.890;2024-03-06T01:12:48;5.00;99.90
21648;DHT22;10985;54.182;7.890;2024-03-06T01:15:14;5.00;99.90
21648;DHT22;10985;54.182;7.890;2024-03-06T01:17:39;5.00;99.90
21648;DHT22;10985;54.182;7.890;2024-03-06T01:20:06;5.00;99.90
21648;DHT22;10985;54.182;7.890;2024-03-06T01:22:33;5.00;99.90
21648;DHT22;10985;54.182;7.890;2024-03-06T01:24:59;5.00;99.90
21648;DHT22;10985;54.182;7.890;2024-03-06T01:27:26;5.00;99.90
21648;DHT22;10985;54.182;7.890;2024-03-06T01:29:51;5.00;99.90
21648;DHT22;10985;54.182;7.890;2024-03-06T01:32:17;5.00;99.90
21648;DHT22;10985;54.182;7.890;2024-03-06T01:34:42;5.00;99.90
21648;DHT22;10985;54.182;7.890;2024-03-06T01:37:08;5.10;99.90
21648;DHT22;10985;54.182;7.890;2024-03-06T01:39:34;5.10;99.90
21648;DHT22;10985;54.182;7.890;2024-03-06T01:42:01;5.10;99.90
21648;DHT22;10985;54.182;7.890;2024-03-06T01:44:27;5.10;99.90
21648;DHT22;10985;54.182;7.890;2024-03-06T01:46:52;5.20;99.90
21648;DHT22;10985;54.182;7.890;2024-03-06T01:49:19;5.20;99.90
21648;DHT22;10985;54.182;7.890;2024-03-06T01:51:50;5.20;99.90
21648;DHT22;10985;54.182;7.890;2024-03-06T01:54:16;5.20;99.90
21648;DHT22;10985;54.182;7.890;2024-03-06T01:56:46;5.20;99.90
21648;DHT22;10985;54.182;7.890;2024-03-06T01:59:13;5.20;99.90
21648;DHT22;10985;54.182;7.890;2024-03-06T02:01:40;5.20;99.90
21648;DHT22;10985;54.182;7.890;2024-03-06T02:04:09;5.20;99.90
21648;DHT22;10985;54.182;7.890;2024-03-06T02:06:38;5.20;99.90
21648;DHT22;10985;54.182;7.890;2024-03-06T02:09:04;5.20;99.90
21648;DHT22;10985;54.182;7.890;2024-03-06T02:11:29;5.20;99.90
21648;DHT22;10985;54.182;7.890;2024-03-06T02:13:55;5.20;99.90
21648;DHT22;10985;54.182;7.890;2024-03-06T02:16:21;5.20;99.90
21648;DHT22;10985;54.182;7.890;2024-03-06T02:21:23;5.20;99.90
21648;DHT22;10985;54.182;7.890;2024-03-06T02:23:49;5.20;99.90
21648;DHT22;10985;54.182;7.890;2024-03-06T02:26:16;5.20;99.90
21648;DHT22;10985;54.182;7.890;2024-03-06T02:28:52;5.20;99.90
21648;DHT22;10985;54.182;7.890;2024-03-06T02:31:18;5.20;99.90
21648;DHT22;10985;54.182;7.890;2024-03-06T02:33:48;5.20;99.90
21648;DHT22;10985;54.182;7.890;2024-03-06T02:36:15;5.20;99.90
21648;DHT22;10985;54.182;7.890;2024-03-06T02:38:42;5.20;99.90
21648;DHT22;10985;54.182;7.890;2024-03-06T02:41:08;5.20;99.90
21648;DHT22;10985;54.182;7.890;2024-03-06T02:43:34;5.20;99.90
21648;DHT22;10985;54.182;7.890;2024-03-06T02:45:59;5.20;99.90
21648;DHT22;10985;54.182;7.890;2024-03-06T02:48:25;5.20;99.90
21648;DHT22;10985;54.182;7.890;2024-03-06T02:50:51;5.20;99.90
21648;DHT22;10985;54.182;7.890;2024-03-06T02:53:16;5.20;99.90
21648;DHT22;10985;54.182;7.890;2024-03-06T02:55:42;5.20;99.90
21648;DHT22;10985;54.182;7.890;2024-03-06T02:58:07;5.20;99.90
21648;DHT22;10985;54.182;7.890;2024-03-06T03:00:33;5.20;99.90
21648;DHT22;10985;54.182;7.890;2024-03-06T03:02:58;5.20;99.90
21648;DHT22;10985;54.182;7.890;2024-03-06T03:05:24;5.20;99.90
21648;DHT22;10985;54.182;7.890;2024-03-06T03:07:50;5.20;99.90
21648;DHT22;10985;54.182;7.890;2024-03-06T03:10:16;5.20;99.90
21648;DHT22;10985;54.182;7.890;2024-03-06T03:12:42;5.10;99.90
21648;DHT22;10985;54.182;7.890;2024-03-06T03:15:08;5.10;99.90
21648;DHT22;10985;54.182;7.890;2024-03-06T03:17:34;5.10;99.90
21648;DHT22;10985;54.182;7.890;2024-03-06T03:20:00;5.10;99.90
21648;DHT22;10985;54.182;7.890;2024-03-06T03:22:25;5.10;99.90
21648;DHT22;10985;54.182;7.890;2024-03-06T03:24:51;5.10;99.90
21648;DHT22;10985;54.182;7.890;2024-03-06T03:27:17;5.10;99.90
21648;DHT22;10985;54.182;7.890;2024-03-06T03:29:43;5.10;99.90
21648;DHT22;10985;54.182;7.890;2024-03-06T03:32:09;5.10;99.90
21648;DHT22;10985;54.182;7.890;2024-03-06T03:34:35;5.10;99.90
21648;DHT22;10985;54.182;7.890;2024-03-06T03:37:00;5.10;99.90
21648;DHT22;10985;54.182;7.890;2024-03-06T03:39:26;5.10;99.90
21648;DHT22;10985;54.182;7.890;2024-03-06T03:41:52;5.10;99.90
21648;DHT22;10985;54.182;7.890;2024-03-06T03:44:18;5.10;99.90
21648;DHT22;10985;54.182;7.890;2024-03-06T03:46:44;5.10;99.90
21648;DHT22;10985;54.182;7.890;2024-03-06T03:49:10;5.10;99.90
21648;DHT22;10985;54.182;7.890;2024-03-06T03:51:37;5.10;99.90
21648;DHT22;10985;54.182;7.890;2024-03-06T03:54:04;5.10;99.90
21648;DHT22;10985;54.182;7.890;2024-03-06T03:56:30;5.10;99.90
21648;DHT22;10985;54.182;7.890;2024-03-06T03:58:56;5.10;99.90
21648;DHT22;10985;54.182;7.890;2024-03-06T04:01:23;5.10;99.90
21648;DHT22;10985;54.182;7.890;2024-03-06T04:03:48;5.10;99.90
21648;DHT22;10985;54.182;7.890;2024-03-06T04:06:14;5.10;99.90
21648;DHT22;10985;54.182;7.890;2024-03-06T04:08:40;5.10;99.90
21648;DHT22;10985;54.182;7.890;2024-03-06T04:11:06;5.10;99.90
21648;DHT22;10985;54.182;7.890;2024-03-06T04:13:36;5.10;99.90
21648;DHT22;10985;54.182;7.890;2024-03-06T04:16:02;5.10;99.90
21648;DHT22;10985;54.182;7.890;2024-03-06T04:18:28;5.10;99.90
21648;DHT22;10985;54.182;7.890;2024-03-06T04:20:54;5.10;99.90
21648;DHT22;10985;54.182;7.890;2024-03-06T04:23:19;5.10;99.90
21648;DHT22;10985;54.182;7.890;2024-03-06T04:25:45;5.10;99.90
21648;DHT22;10985;54.182;7.890;2024-03-06T04:28:10;5.10;99.90
21648;DHT22;10985;54.182;7.890;2024-03-06T04:30:36;5.20;99.90
21648;DHT22;10985;54.182;7.890;2024-03-06T04:33:02;5.20;99.90
21648;DHT22;10985;54.182;7.890;2024-03-06T04:35:28;5.10;99.90
21648;DHT22;10985;54.182;7.890;2024-03-06T04:37:53;5.20;99.90
21648;DHT22;10985;54.182;7.890;2024-03-06T04:40:19;5.20;99.90
21648;DHT22;10985;54.182;7.890;2024-03-06T04:42:47;5.10;99.90
21648;DHT22;10985;54.182;7.890;2024-03-06T04:45:15;5.20;99.90
21648;DHT22;10985;54.182;7.890;2024-03-06T04:47:41;5.20;99.90
21648;DHT22;10985;54.182;7.890;2024-03-06T04:50:11;5.10;99.90
21648;DHT22;10985;54.182;7.890;2024-03-06T04:52:40;5.10;99.90
21648;DHT22;10985;54.182;7.890;2024-03-06T04:55:06;5.10;99.90
21648;DHT22;10985;54.182;7.890;2024-03-06T04:57:34;5.10;99.90
21648;DHT22;10985;54.182;7.890;2024-03-06T04:59:59;5.10;99.90
21648;DHT22;10985;54.182;7.890;2024-03-06T05:02:25;5.10;99.90
21648;DHT22;10985;54.182;7.890;2024-03-06T05:04:51;5.10;99.90
21648;DHT22;10985;54.182;7.890;2024-03-06T05:07:17;5.10;99.90
21648;DHT22;10985;54.182;7.890;2024-03-06T05:09:42;5.20;99.90
21648;DHT22;10985;54.182;7.890;2024-03-06T05:12:08;5.20;99.90
21648;DHT22;10985;54.182;7.890;2024-03-06T05:14:33;5.10;99.90
21648;DHT22;10985;54.182;7.890;2024-03-06T05:16:59;5.10;99.90
21648;DHT22;10985;54.182;7.890;2024-03-06T05:19:25;5.10;99.90
21648;DHT22;10985;54.182;7.890;2024-03-06T05:21:58;5.10;99.90
21648;DHT22;10985;54.182;7.890;2024-03-06T05:24:24;5.10;99.90
21648;DHT22;10985;54.182;7.890;2024-03-06T05:26:49;5.10;99.90
21648;DHT22;10985;54.182;7.890;2024-03-06T05:29:16;5.10;99.90
21648;DHT22;10985;54.182;7.890;2024-03-06T05:31:41;5.00;99.90
21648;DHT22;10985;54.182;7.890;2024-03-06T05:34:07;5.00;99.90
21648;DHT22;10985;54.182;7.890;2024-03-06T05:36:33;4.90;99.90
21648;DHT22;10985;54.182;7.890;2024-03-06T05:38:58;5.00;99.90
21648;DHT22;10985;54.182;7.890;2024-03-06T05:41:24;4.90;99.90
21648;DHT22;10985;54.182;7.890;2024-03-06T05:43:49;5.00;99.90
21648;DHT22;10985;54.182;7.890;2024-03-06T05:46:15;4.90;99.90
21648;DHT22;10985;54.182;7.890;2024-03-06T05:48:41;5.00;99.90
21648;DHT22;10985;54.182;7.890;2024-03-06T05:51:07;5.00;99.90
21648;DHT22;10985;54.182;7.890;2024-03-06T05:53:39;5.00;99.90
21648;DHT22;10985;54.182;7.890;2024-03-06T05:56:07;5.00;99.90
21648;DHT22;10985;54.182;7.890;2024-03-06T05:58:33;5.00;99.90
21648;DHT22;10985;54.182;7.890;2024-03-06T06:01:00;5.00;99.90
21648;DHT22;10985;54.182;7.890;2024-03-06T06:03:25;5.00;99.90
21648;DHT22;10985;54.182;7.890;2024-03-06T06:05:51;5.00;99.90
21648;DHT22;10985;54.182;7.890;2024-03-06T06:08:16;5.00;99.90
21648;DHT22;10985;54.182;7.890;2024-03-06T06:10:42;5.00;99.90
21648;DHT22;10985;54.182;7.890;2024-03-06T06:13:07;5.00;99.90
21648;DHT22;10985;54.182;7.890;2024-03-06T06:15:33;5.00;99.90
21648;DHT22;10985;54.182;7.890;2024-03-06T06:17:58;5.00;99.90
21648;DHT22;10985;54.182;7.890;2024-03-06T06:20:24;5.00;99.90
21648;DHT22;10985;54.182;7.890;2024-03-06T06:22:49;5.00;99.90
21648;DHT22;10985;54.182;7.890;2024-03-06T06:25:15;5.00;99.90
21648;DHT22;10985;54.182;7.890;2024-03-06T06:27:41;5.00;99.90
21648;DHT22;10985;54.182;7.890;2024-03-06T06:30:07;5.00;99.90
21648;DHT22;10985;54.182;7.890;2024-03-06T06:32:37;5.00;99.90
21648;DHT22;10985;54.182;7.890;2024-03-06T06:35:04;5.10;99.90
21648;DHT22;10985;54.182;7.890;2024-03-06T06:37:29;5.10;99.90
21648;DHT22;10985;54.182;7.890;2024-03-06T06:39:55;5.10;99.90
21648;DHT22;10985;54.182;7.890;2024-03-06T06:42:20;5.10;99.90
21648;DHT22;10985;54.182;7.890;2024-03-06T06:44:46;5.10;99.90
21648;DHT22;10985;54.182;7.890;2024-03-06T06:47:11;5.10;99.90
21648;DHT22;10985;54.182;7.890;2024-03-06T06:49:37;5.10;99.90
21648;DHT22;10985;54.182;7.890;2024-03-06T06:52:02;5.10;99.90
21648;DHT22;10985;54.182;7.890;2024-03-06T06:54:28;5.10;99.90
21648;DHT22;10985;54.182;7.890;2024-03-06T06:56:53;5.10;99.90
21648;DHT22;10985;54.182;7.890;2024-03-06T06:59:19;5.20;99.90
21648;DHT22;10985;54.182;7.890;2024-03-06T07:01:45;5.20;99.90
21648;DHT22;10985;54.182;7.890;2024-03-06T07:04:11;5.20;99.90
21648;DHT22;10985;54.182;7.890;2024-03-06T07:06:36;5.20;99.90
21648;DHT22;10985;54.182;7.890;2024-03-06T07:09:02;5.10;99.90
21648;DHT22;10985;54.182;7.890;2024-03-06T07:11:30;5.10;99.90
21648;DHT22;10985;54.182;7.890;2024-03-06T07:13:55;5.20;99.90
21648;DHT22;10985;54.182;7.890;2024-03-06T07:16:21;5.20;99.90
21648;DHT22;10985;54.182;7.890;2024-03-06T07:18:47;5.30;99.90
21648;DHT22;10985;54.182;7.890;2024-03-06T07:21:13;5.20;99.90
21648;DHT22;10985;54.182;7.890;2024-03-06T07:23:38;5.30;99.90
21648;DHT22;10985;54.182;7.890;2024-03-06T07:26:04;5.30;99.90
21648;DHT22;10985;54.182;7.890;2024-03-06T07:28:30;5.30;99.90
21648;DHT22;10985;54.182;7.890;2024-03-06T07:30:55;5.30;99.90
21648;DHT22;10985;54.182;7.890;2024-03-06T07:33:21;5.30;99.90
21648;DHT22;10985;54.182;7.890;2024-03-06T07:35:46;5.40;99.90
21648;DHT22;10985;54.182;7.890;2024-03-06T07:38:12;5.40;99.90
21648;DHT22;10985;54.182;7.890;2024-03-06T07:40:38;5.30;99.90
21648;DHT22;10985;54.182;7.890;2024-03-06T07:43:03;5.40;99.90
21648;DHT22;10985;54.182;7.890;2024-03-06T07:45:30;5.30;99.90
21648;DHT22;10985;54.182;7.890;2024-03-06T07:47:55;5.40;99.90
21648;DHT22;10985;54.182;7.890;2024-03-06T07:50:21;5.40;99.90
21648;DHT22;10985;54.182;7.890;2024-03-06T07:52:47;5.40;99.90
21648;DHT22;10985;54.182;7.890;2024-03-06T07:55:12;5.50;99.90
21648;DHT22;10985;54.182;7.890;2024-03-06T07:57:38;5.50;99.90
21648;DHT22;10985;54.182;7.890;2024-03-06T08:00:05;5.50;99.90
21648;DHT22;10985;54.182;7.890;2024-03-06T08:02:40;5.60;99.90
21648;DHT22;10985;54.182;7.890;2024-03-06T08:05:09;5.60;99.90
21648;DHT22;10985;54.182;7.890;2024-03-06T08:07:37;5.60;99.90
21648;DHT22;10985;54.182;7.890;2024-03-06T08:10:02;5.60;99.90
21648;DHT22;10985;54.182;7.890;2024-03-06T08:12:28;5.70;99.90
21648;DHT22;10985;54.182;7.890;2024-03-06T08:14:54;5.70;99.90
21648;DHT22;10985;54.182;7.890;2024-03-06T08:17:20;5.70;99.90
21648;DHT22;10985;54.182;7.890;2024-03-06T08:19:46;5.70;99.90
21648;DHT22;10985;54.182;7.890;2024-03-06T08:22:11;5.70;99.90
21648;DHT22;10985;54.182;7.890;2024-03-06T08:24:37;5.80;99.90
21648;DHT22;10985;54.182;7.890;2024-03-06T08:27:02;5.80;99.90
21648;DHT22;10985;54.182;7.890;2024-03-06T08:29:28;5.80;99.90
21648;DHT22;10985;54.182;7.890;2024-03-06T08:31:54;5.80;99.90
21648;DHT22;10985;54.182;7.890;2024-03-06T08:34:23;5.80;99.90
21648;DHT22;10985;54.182;7.890;2024-03-06T08:36:49;5.80;99.90
21648;DHT22;10985;54.182;7.890;2024-03-06T08:39:15;5.80;99.90
21648;DHT22;10985;54.182;7.890;2024-03-06T08:41:41;5.90;99.90
21648;DHT22;10985;54.182;7.890;2024-03-06T08:44:07;5.90;99.90
21648;DHT22;10985;54.182;7.890;2024-03-06T08:46:33;5.90;99.90
21648;DHT22;10985;54.182;7.890;2024-03-06T08:48:58;5.90;99.90
21648;DHT22;10985;54.182;7.890;2024-03-06T08:51:24;5.90;99.90
21648;DHT22;10985;54.182;7.890;2024-03-06T08:53:50;5.90;99.90
21648;DHT22;10985;54.182;7.890;2024-03-06T08:56:16;6.00;99.90
21648;DHT22;10985;54.182;7.890;2024-03-06T08:58:41;6.00;99.90
21648;DHT22;10985;54.182;7.890;2024-03-06T09:01:07;6.00;99.90
21648;DHT22;10985;54.182;7.890;2024-03-06T09:03:33;6.10;99.90
21648;DHT22;10985;54.182;7.890;2024-03-06T09:05:58;6.10;99.90
21648;DHT22;10985;54.182;7.890;2024-03-06T09:08:25;6.20;99.90
21648;DHT22;10985;54.182;7.890;2024-03-06T09:10:50;6.30;99.90
21648;DHT22;10985;54.182;7.890;2024-03-06T09:13:16;6.30;99.90
21648;DHT22;10985;54.182;7.890;2024-03-06T09:15:41;6.40;99.90
21648;DHT22;10985;54.182;7.890;2024-03-06T09:18:07;6.40;99.90
21648;DHT22;10985;54.182;7.890;2024-03-06T09:20:32;6.50;99.90
21648;DHT22;10985;54.182;7.890;2024-03-06T09:22:58;6.50;99.90
21648;DHT22;10985;54.182;7.890;2024-03-06T09:25:24;6.70;99.90
21648;DHT22;10985;54.182;7.890;2024-03-06T09:27:50;6.70;99.90
21648;DHT22;10985;54.182;7.890;2024-03-06T09:30:15;6.70;99.90
21648;DHT22;10985;54.182;7.890;2024-03-06T09:32:41;6.70;99.90
21648;DHT22;10985;54.182;7.890;2024-03-06T09:35:07;6.80;99.90
21648;DHT22;10985;54.182;7.890;2024-03-06T09:37:33;6.80;99.90
21648;DHT22;10985;54.182;7.890;2024-03-06T09:39:58;6.80;99.90
21648;DHT22;10985;54.182;7.890;2024-03-06T09:42:24;6.80;99.90
21648;DHT22;10985;54.182;7.890;2024-03-06T09:44:50;6.80;99.90
21648;DHT22;10985;54.182;7.890;2024-03-06T09:47:21;6.90;99.90
21648;DHT22;10985;54.182;7.890;2024-03-06T09:49:48;6.90;99.90
21648;DHT22;10985;54.182;7.890;2024-03-06T09:52:15;6.90;99.90
21648;DHT22;10985;54.182;7.890;2024-03-06T09:54:40;7.00;99.90
21648;DHT22;10985;54.182;7.890;2024-03-06T09:57:06;7.10;99.90
21648;DHT22;10985;54.182;7.890;2024-03-06T09:59:32;7.10;99.90
21648;DHT22;10985;54.182;7.890;2024-03-06T10:01:58;7.30;99.90
21648;DHT22;10985;54.182;7.890;2024-03-06T10:04:28;7.30;99.90
21648;DHT22;10985;54.182;7.890;2024-03-06T10:06:55;7.40;99.90
21648;DHT22;10985;54.182;7.890;2024-03-06T10:09:21;7.60;99.90
21648;DHT22;10985;54.182;7.890;2024-03-06T10:11:47;7.70;99.90
21648;DHT22;10985;54.182;7.890;2024-03-06T10:14:13;7.90;99.90
21648;DHT22;10985;54.182;7.890;2024-03-06T10:16:59;8.20;99.90
21648;DHT22;10985;54.182;7.890;2024-03-06T10:19:29;8.50;99.90
21648;DHT22;10985;54.182;7.890;2024-03-06T10:21:55;8.80;99.90
21648;DHT22;10985;54.182;7.890;2024-03-06T10:24:23;9.10;99.90
21648;DHT22;10985;54.182;7.890;2024-03-06T10:26:50;9.50;99.90
21648;DHT22;10985;54.182;7.890;2024-03-06T10:29:20;9.70;99.90
21648;DHT22;10985;54.182;7.890;2024-03-06T10:31:54;10.00;99.90
21648;DHT22;10985;54.182;7.890;2024-03-06T10:34:25;10.40;99.90
21648;DHT22;10985;54.182;7.890;2024-03-06T10:36:54;10.80;99.90
21648;DHT22;10985;54.182;7.890;2024-03-06T10:39:20;11.10;99.90
21648;DHT22;10985;54.182;7.890;2024-03-06T10:41:52;11.50;99.90
21648;DHT22;10985;54.182;7.890;2024-03-06T10:44:24;12.00;99.90
21648;DHT22;10985;54.182;7.890;2024-03-06T10:47:01;12.20;99.90
21648;DHT22;10985;54.182;7.890;2024-03-06T10:49:28;12.60;99.90
21648;DHT22;10985;54.182;7.890;2024-03-06T10:52:02;12.80;99.90
21648;DHT22;10985;54.182;7.890;2024-03-06T10:54:31;13.20;99.90
21648;DHT22;10985;54.182;7.890;2024-03-06T10:56:57;13.30;99.90
21648;DHT22;10985;54.182;7.890;2024-03-06T10:59:25;13.50;99.90
21648;DHT22;10985;54.182;7.890;2024-03-06T11:01:58;13.50;99.90
21648;DHT22;10985;54.182;7.890;2024-03-06T11:04:27;13.60;99.90
21648;DHT22;10985;54.182;7.890;2024-03-06T11:07:03;13.70;99.90
21648;DHT22;10985;54.182;7.890;2024-03-06T11:09:36;13.80;99.90
21648;DHT22;10985;54.182;7.890;2024-03-06T11:12:03;13.90;99.90
21648;DHT22;10985;54.182;7.890;2024-03-06T11:14:31;14.20;99.90
21648;DHT22;10985;54.182;7.890;2024-03-06T11:17:05;14.30;99.90
21648;DHT22;10985;54.182;7.890;2024-03-06T11:31:05;15.10;99.90
21648;DHT22;10985;54.182;7.890;2024-03-06T11:33:38;15.30;99.90
21648;DHT22;10985;54.182;7.890;2024-03-06T11:36:23;15.50;99.90
21648;DHT22;10985;54.182;7.890;2024-03-06T11:38:58;15.60;99.90
21648;DHT22;10985;54.182;7.890;2024-03-06T11:41:30;15.90;99.90
21648;DHT22;10985;54.182;7.890;2024-03-06T11:43:59;16.20;99.90
21648;DHT22;10985;54.182;7.890;2024-03-06T11:46:56;16.30;99.90
21648;DHT22;10985;54.182;7.890;2024-03-06T11:49:23;16.50;99.90
21648;DHT22;10985;54.182;7.890;2024-03-06T11:51:54;16.70;99.90
21648;DHT22;10985;54.182;7.890;2024-03-06T11:54:20;17.10;99.90
21648;DHT22;10985;54.182;7.890;2024-03-06T11:56:54;17.30;99.90
21648;DHT22;10985;54.182;7.890;2024-03-06T11:59:26;17.50;99.90
21648;DHT22;10985;54.182;7.890;2024-03-06T12:01:52;17.70;99.90
21648;DHT22;10985;54.182;7.890;2024-03-06T12:04:19;17.80;99.90
21648;DHT22;10985;54.182;7.890;2024-03-06T14:16:43;16.20;99.90
21648;DHT22;10985;54.182;7.890;2024-03-06T14:19:09;15.80;99.90
21648;DHT22;10985;54.182;7.890;2024-03-06T14:21:36;15.40;99.90
21648;DHT22;10985;54.182;7.890;2024-03-06T14:24:01;15.10;99.90
21648;DHT22;10985;54.182;7.890;2024-03-06T14:26:32;14.70;99.90
21648;DHT22;10985;54.182;7.890;2024-03-06T14:29:01;14.40;99.90
21648;DHT22;10985;54.182;7.890;2024-03-06T14:31:28;14.10;99.90
21648;DHT22;10985;54.182;7.890;2024-03-06T14:33:53;13.70;99.90
21648;DHT22;10985;54.182;7.890;2024-03-06T14:36:19;13.40;99.90
21648;DHT22;10985;54.182;7.890;2024-03-06T14:38:47;13.10;99.90
21648;DHT22;10985;54.182;7.890;2024-03-06T14:41:12;12.90;99.90
21648;DHT22;10985;54.182;7.890;2024-03-06T14:43:38;12.60;99.90
21648;DHT22;10985;54.182;7.890;2024-03-06T14:46:07;12.30;99.90
21648;DHT22;10985;54.182;7.890;2024-03-06T14:48:34;12.10;99.90
21648;DHT22;10985;54.182;7.890;2024-03-06T14:51:00;11.90;99.90
21648;DHT22;10985;54.182;7.890;2024-03-06T14:53:25;11.70;99.90
21648;DHT22;10985;54.182;7.890;2024-03-06T14:55:51;11.50;99.90
21648;DHT22;10985;54.182;7.890;2024-03-06T14:58:17;11.40;99.90
21648;DHT22;10985;54.182;7.890;2024-03-06T15:00:42;11.30;99.90
21648;DHT22;10985;54.182;7.890;2024-03-06T15:03:08;11.10;99.90
21648;DHT22;10985;54.182;7.890;2024-03-06T15:05:35;11.00;99.90
21648;DHT22;10985;54.182;7.890;2024-03-06T15:08:01;10.80;99.90
21648;DHT22;10985;54.182;7.890;2024-03-06T15:10:29;10.80;99.90
21648;DHT22;10985;54.182;7.890;2024-03-06T15:12:57;10.60;99.90
21648;DHT22;10985;54.182;7.890;2024-03-06T15:15:22;10.60;99.90
21648;DHT22;10985;54.182;7.890;2024-03-06T15:17:48;10.50;99.90
21648;DHT22;10985;54.182;7.890;2024-03-06T15:20:13;10.40;99.90
21648;DHT22;10985;54.182;7.890;2024-03-06T15:22:39;10.30;99.90
21648;DHT22;10985;54.182;7.890;2024-03-06T15:25:08;10.20;99.90
21648;DHT22;10985;54.182;7.890;2024-03-06T15:27:34;10.10;99.90
21648;DHT22;10985;54.182;7.890;2024-03-06T15:30:01;10.00;99.90
21648;DHT22;10985;54.182;7.890;2024-03-06T15:32:27;10.00;99.90
21648;DHT22;10985;54.182;7.890;2024-03-06T15:34:52;9.90;99.90
21648;DHT22;10985;54.182;7.890;2024-03-06T15:37:22;9.80;99.90
21648;DHT22;10985;54.182;7.890;2024-03-06T15:39:53;9.70;99.90
21648;DHT22;10985;54.182;7.890;2024-03-06T15:42:20;9.70;99.90
21648;DHT22;10985;54.182;7.890;2024-03-06T15:44:47;9.50;99.90
21648;DHT22;10985;54.182;7.890;2024-03-06T15:47:13;9.50;99.90
21648;DHT22;10985;54.182;7.890;2024-03-06T15:49:38;9.50;99.90
21648;DHT22;10985;54.182;7.890;2024-03-06T15:52:04;9.40;99.90
21648;DHT22;10985;54.182;7.890;2024-03-06T15:54:30;9.30;99.90
21648;DHT22;10985;54.182;7.890;2024-03-06T15:56:56;9.30;99.90
21648;DHT22;10985;54.182;7.890;2024-03-06T15:59:23;9.20;99.90
21648;DHT22;10985;54.182;7.890;2024-03-06T16:01:48;9.20;99.90
21648;DHT22;10985;54.182;7.890;2024-03-06T16:04:14;9.10;99.90
21648;DHT22;10985;54.182;7.890;2024-03-06T16:06:39;9.00;99.90
21648;DHT22;10985;54.182;7.890;2024-03-06T16:09:05;9.00;99.90
21648;DHT22;10985;54.182;7.890;2024-03-06T16:11:31;9.00;99.90
21648;DHT22;10985;54.182;7.890;2024-03-06T16:13:56;8.90;99.90
21648;DHT22;10985;54.182;7.890;2024-03-06T16:16:25;8.80;99.90
21648;DHT22;10985;54.182;7.890;2024-03-06T16:18:50;8.80;99.90
21648;DHT22;10985;54.182;7.890;2024-03-06T16:21:19;8.70;99.90
21648;DHT22;10985;54.182;7.890;2024-03-06T16:23:45;8.80;99.90
21648;DHT22;10985;54.182;7.890;2024-03-06T16:26:11;8.70;99.90
21648;DHT22;10985;54.182;7.890;2024-03-06T16:28:36;8.60;99.90
21648;DHT22;10985;54.182;7.890;2024-03-06T16:31:02;8.50;99.90
21648;DHT22;10985;54.182;7.890;2024-03-06T16:33:27;8.50;99.90
21648;DHT22;10985;54.182;7.890;2024-03-06T16:35:53;8.40;99.90
21648;DHT22;10985;54.182;7.890;2024-03-06T16:38:18;8.40;99.90
21648;DHT22;10985;54.182;7.890;2024-03-06T16:40:45;8.40;99.90
21648;DHT22;10985;54.182;7.890;2024-03-06T16:43:15;8.40;99.90
21648;DHT22;10985;54.182;7.890;2024-03-06T16:45:40;8.30;99.90
21648;DHT22;10985;54.182;7.890;2024-03-06T16:48:06;8.30;99.90
21648;DHT22;10985;54.182;7.890;2024-03-06T16:50:32;8.20;99.90
21648;DHT22;10985;54.182;7.890;2024-03-06T16:52:58;8.20;99.90
21648;DHT22;10985;54.182;7.890;2024-03-06T16:55:24;8.10;99.90
21648;DHT22;10985;54.182;7.890;2024-03-06T16:57:50;8.10;99.90
21648;DHT22;10985;54.182;7.890;2024-03-06T17:00:16;8.00;99.90
21648;DHT22;10985;54.182;7.890;2024-03-06T17:02:42;8.00;99.90
21648;DHT22;10985;54.182;7.890;2024-03-06T17:05:07;8.00;99.90
21648;DHT22;10985;54.182;7.890;2024-03-06T17:07:36;7.90;99.90
21648;DHT22;10985;54.182;7.890;2024-03-06T17:10:01;7.90;99.90
21648;DHT22;10985;54.182;7.890;2024-03-06T17:12:27;7.90;99.90
21648;DHT22;10985;54.182;7.890;2024-03-06T17:14:53;7.80;99.90
21648;DHT22;10985;54.182;7.890;2024-03-06T17:17:18;7.80;99.90
21648;DHT22;10985;54.182;7.890;2024-03-06T17:19:45;7.80;99.90
21648;DHT22;10985;54.182;7.890;2024-03-06T17:22:11;7.70;99.90
21648;DHT22;10985;54.182;7.890;2024-03-06T17:24:38;7.70;99.90
21648;DHT22;10985;54.182;7.890;2024-03-06T17:27:04;7.70;99.90
21648;DHT22;10985;54.182;7.890;2024-03-06T17:29:30;7.70;99.90
21648;DHT22;10985;54.182;7.890;2024-03-06T17:31:56;7.60;99.90
21648;DHT22;10985;54.182;7.890;2024-03-06T17:34:21;7.60;99.90
21648;DHT22;10985;54.182;7.890;2024-03-06T17:36:47;7.60;99.90
21648;DHT22;10985;54.182;7.890;2024-03-06T17:39:13;7.60;99.90
21648;DHT22;10985;54.182;7.890;2024-03-06T17:41:41;7.50;99.90
21648;DHT22;10985;54.182;7.890;2024-03-06T17:44:08;7.50;99.90
21648;DHT22;10985;54.182;7.890;2024-03-06T17:46:34;7.50;99.90
21648;DHT22;10985;54.182;7.890;2024-03-06T17:48:59;7.50;99.90
21648;DHT22;10985;54.182;7.890;2024-03-06T17:51:32;7.40;99.90
21648;DHT22;10985;54.182;7.890;2024-03-06T17:53:58;7.40;99.90
21648;DHT22;10985;54.182;7.890;2024-03-06T17:56:24;7.40;99.90
21648;DHT22;10985;54.182;7.890;2024-03-06T17:58:50;7.40;99.90
21648;DHT22;10985;54.182;7.890;2024-03-06T18:01:17;7.40;99.90
21648;DHT22;10985;54.182;7.890;2024-03-06T18:03:45;7.30;99.90